Historique des mesures à Cassis (13260), France
Quotidien Résumé Juin 2, 2017 Unités:  Métrique    US   Métrique/US
« Précédent (Jour)
Suivant (Jour) »
Quotidien Hebdomadaire Mensuel Annuel Période au choix
  Maximum: Minimum: Moyenne:
Température: TemperatureC °C 18.7 °C 22.5 °C
Point de rosée: DewpointC °C 15.6 °C 17 °C
Humidité: Humidity % 58 % 68 %
Vitesse du vent: 0 km/h 0 km/h 3.7 km/h
Rafales: 0 km/h - -
Vent:- - SE
Pression: PressurehPa hPa 1013.4 hPa -
Précipitations: 0.0 mm    
Historical Graphs
 
 
Mesures pour : Juin 2, 2017
Heure Temperature Point de rosée Pression Vent Vitesse du vent Rafales Humidité Pluie (par heure) Conditions
TemperatureC °C DewpointC °C PressurehPa hPa Calm     Humidity % HourlyPrecipMM mm SoftwareType W/m2
00:10 20.3 °C 15.9 °C 1015.8 hPa Calm     76 % 0.0 mm open2300-1.11 W/m2
01:10 19.9 °C 15.8 °C 1015.5 hPa Calm     77 % 0.0 mm open2300-1.11 W/m2
02:10 19.6 °C 15.7 °C 1015.5 hPa Calm     78 % 0.0 mm open2300-1.11 W/m2
03:10 19.4 °C 15.7 °C 1014.8 hPa Calm     79 % 0.0 mm open2300-1.11 W/m2
04:10 19.1 °C 15.6 °C 1014.4 hPa NNW 5.1 km/h 5.1 km/h 80 % 0.0 mm open2300-1.11 W/m2
05:10 18.9 °C 15.8 °C 1014.4 hPa Calm   1.8 km/h 82 % 0.0 mm open2300-1.11 W/m2
06:10 18.7 °C 15.6 °C 1014.8 hPa NNE 3.4 km/h 3.4 km/h 82 % 0.0 mm open2300-1.11 W/m2
07:10 19.1 °C 15.9 °C 1014.8 hPa Calm   4.2 km/h 82 % 0.0 mm open2300-1.11 W/m2
08:10 21.8 °C 17.8 °C 1015.5 hPa Calm     78 % 0.0 mm open2300-1.11 W/m2
09:10 22.2 °C 17.6 °C 1015.1 hPa Calm   8 km/h 75 % 0.0 mm open2300-1.11 W/m2
10:10 24.5 °C 19.3 °C 1015.5 hPa South 9.8 km/h 9.8 km/h 73 % 0.0 mm open2300-1.11 W/m2
11:10 27.1 °C 19.9 °C 1015.5 hPa South 5.6 km/h 8.9 km/h 65 % 0.0 mm open2300-1.11 W/m2
12:10 28.4 °C 20.2 °C 1015.1 hPa South 9.8 km/h 18.7 km/h 61 % 0.0 mm open2300-1.11 W/m2
13:10 28.4 °C 19.9 °C 1015.1 hPa SE 6.4 km/h 8 km/h 60 % 0.0 mm open2300-1.11 W/m2
14:10 28.8 °C 19.7 °C 1014.8 hPa South 8 km/h 9.8 km/h 58 % 0.0 mm open2300-1.11 W/m2
15:10 28.4 °C 19.6 °C 1014.1 hPa SE 5.1 km/h 8 km/h 59 % 0.0 mm open2300-1.11 W/m2
16:10 27.9 °C 19.4 °C 1014.1 hPa SE 8 km/h 8 km/h 60 % 0.0 mm open2300-1.11 W/m2
17:10 27.2 °C 19.3 °C 1013.8 hPa ESE 19.6 km/h 19.6 km/h 62 % 0.0 mm open2300-1.11 W/m2
18:10 26.5 °C 18.9 °C 1013.4 hPa Calm   19.6 km/h 63 % 0.0 mm open2300-1.11 W/m2
19:10 25.6 °C 18.5 °C 1013.4 hPa SSE 5.6 km/h 5.6 km/h 65 % 0.0 mm open2300-1.11 W/m2
20:11 24.7 °C 18.2 °C 1013.8 hPa Calm     67 % 0.0 mm open2300-1.11 W/m2
21:10 23.7 °C 17.9 °C 1013.8 hPa Calm     70 % 0.0 mm open2300-1.11 W/m2
22:10 22.1 °C 16.8 °C 1013.4 hPa NNE 2.3 km/h 2.9 km/h 72 % 0.0 mm open2300-1.11 W/m2
23:10 20.7 °C 16.1 °C 1013.8 hPa North 3.4 km/h 3.4 km/h 75 % 0.0 mm open2300-1.11 W/m2
Observations météo à CASSIS
WU-History script by Weather Underground - 1 mb